createdAt,value
2023-05-06T00:01:57.179Z,65.73
2023-05-06T00:04:24.104Z,65.26
2023-05-06T00:06:51.415Z,66.14
2023-05-06T00:09:17.957Z,66.24
2023-05-06T00:11:45.836Z,66.49
2023-05-06T00:14:12.481Z,66.89
2023-05-06T00:16:39.096Z,66.10
2023-05-06T00:19:06.197Z,66.25
2023-05-06T00:21:32.739Z,65.82
2023-05-06T00:23:59.278Z,67.13
2023-05-06T00:26:25.773Z,66.65
2023-05-06T00:28:52.278Z,66.87
2023-05-06T00:31:18.797Z,66.32
2023-05-06T00:33:45.311Z,66.36
2023-05-06T00:36:11.848Z,67.24
2023-05-06T00:38:38.278Z,66.97
2023-05-06T00:41:05.128Z,66.28
2023-05-06T00:43:31.600Z,66.38
2023-05-06T00:45:58.184Z,66.91
2023-05-06T00:48:24.783Z,66.25
2023-05-06T00:50:51.348Z,66.53
2023-05-06T00:53:21.725Z,66.30
2023-05-06T00:55:49.803Z,66.64
2023-05-06T00:58:16.300Z,67.29
2023-05-06T01:00:42.948Z,67.14
2023-05-06T01:03:09.581Z,66.54
2023-05-06T01:05:51.337Z,66.79
2023-05-06T01:08:27.545Z,66.73
2023-05-06T01:11:21.622Z,67.28
2023-05-06T01:14:16.173Z,67.46
2023-05-06T01:16:42.825Z,66.34
2023-05-06T01:19:16.350Z,66.51
2023-05-06T01:21:46.170Z,67.04
2023-05-06T01:24:12.654Z,67.77
2023-05-06T01:26:39.114Z,66.66
2023-05-06T01:29:05.719Z,66.81
2023-05-06T01:31:43.021Z,67.05
2023-05-06T01:34:17.720Z,67.17
2023-05-06T01:37:23.185Z,67.16
2023-05-06T01:39:50.703Z,67.68
2023-05-06T01:42:18.257Z,67.34
2023-05-06T01:44:45.512Z,67.32
2023-05-06T01:47:12.912Z,67.77
2023-05-06T01:49:39.796Z,67.58
2023-05-06T01:52:06.377Z,67.28
2023-05-06T01:54:32.903Z,68.12
2023-05-06T01:56:59.397Z,69.02
2023-05-06T01:59:25.908Z,68.74
2023-05-06T02:01:52.445Z,68.09
2023-05-06T02:04:18.939Z,67.83
2023-05-06T02:06:45.408Z,68.29
2023-05-06T02:09:11.893Z,68.08
2023-05-06T02:11:38.356Z,68.11
2023-05-06T02:14:04.854Z,68.77
2023-05-06T02:16:31.478Z,68.30
2023-05-06T02:18:57.979Z,68.02
2023-05-06T02:21:24.476Z,68.59
2023-05-06T02:23:50.903Z,67.83
2023-05-06T02:26:17.409Z,67.68
2023-05-06T02:28:43.868Z,68.63
2023-05-06T02:31:14.506Z,68.05
2023-05-06T02:33:41.107Z,68.58
2023-05-06T02:36:07.671Z,67.91
2023-05-06T02:38:34.128Z,67.88
2023-05-06T02:41:00.627Z,67.84
2023-05-06T02:43:27.183Z,68.27
2023-05-06T02:45:53.858Z,68.69
2023-05-06T02:48:20.505Z,68.72
2023-05-06T02:50:47.061Z,67.74
2023-05-06T02:53:13.568Z,67.99
2023-05-06T02:55:40.151Z,67.31
2023-05-06T02:58:06.610Z,67.71
2023-05-06T03:00:33.110Z,67.56
2023-05-06T03:02:59.635Z,67.67
2023-05-06T03:05:26.148Z,67.65
2023-05-06T03:07:52.763Z,67.97
2023-05-06T03:10:19.326Z,67.47
2023-05-06T03:12:45.905Z,67.56
2023-05-06T03:15:12.609Z,67.39
2023-05-06T03:17:39.339Z,67.63
2023-05-06T03:20:08.308Z,67.06
2023-05-06T03:22:34.838Z,67.19
2023-05-06T03:25:01.374Z,67.06
2023-05-06T03:27:27.959Z,67.21
2023-05-06T03:29:54.447Z,67.46
2023-05-06T03:32:21.015Z,67.46
2023-05-06T03:34:47.473Z,67.67
2023-05-06T03:37:13.968Z,67.57
2023-05-06T03:39:40.505Z,67.63
2023-05-06T03:42:09.238Z,67.18
2023-05-06T03:44:36.320Z,67.50
2023-05-06T03:47:02.877Z,66.60
2023-05-06T03:49:29.418Z,67.62
2023-05-06T03:51:56.158Z,67.41
2023-05-06T03:54:22.924Z,67.31
2023-05-06T03:56:49.348Z,67.03
2023-05-06T03:59:15.816Z,66.99
2023-05-06T04:01:42.480Z,67.66
2023-05-06T04:04:09.067Z,67.70
2023-05-06T04:06:35.556Z,67.48
2023-05-06T04:09:01.972Z,67.82
2023-05-06T04:11:29.814Z,67.77
2023-05-06T04:13:56.539Z,68.29
2023-05-06T04:16:23.206Z,66.92
2023-05-06T04:18:51.510Z,67.47
2023-05-06T04:21:18.535Z,68.16
2023-05-06T04:23:45.064Z,68.33
2023-05-06T04:26:11.551Z,68.68
2023-05-06T04:28:38.145Z,69.82
2023-05-06T04:31:04.960Z,71.54
2023-05-06T04:33:32.752Z,72.22
2023-05-06T04:36:00.335Z,73.18
2023-05-06T04:38:30.481Z,72.44
2023-05-06T04:40:57.400Z,72.40
2023-05-06T04:43:23.982Z,72.31
2023-05-06T04:45:50.551Z,72.11
2023-05-06T04:48:18.821Z,73.19
2023-05-06T04:50:46.647Z,72.90
2023-05-06T04:53:13.531Z,73.75
2023-05-06T04:55:40.282Z,73.06
2023-05-06T04:58:07.437Z,72.23
2023-05-06T05:00:34.532Z,73.01
2023-05-06T05:03:02.034Z,72.95
2023-05-06T05:05:29.156Z,72.89
2023-05-06T05:07:56.067Z,73.88
2023-05-06T05:10:22.530Z,73.13
2023-05-06T05:12:49.024Z,73.01
2023-05-06T05:15:15.655Z,73.50
2023-05-06T05:17:42.210Z,72.81
2023-05-06T05:20:09.193Z,71.96
2023-05-06T05:22:35.714Z,72.60
2023-05-06T05:25:02.234Z,71.83
2023-05-06T05:27:28.736Z,71.96
2023-05-06T05:29:55.221Z,72.24
2023-05-06T05:32:21.953Z,71.88
2023-05-06T05:34:48.576Z,71.95
2023-05-06T05:37:15.065Z,72.88
2023-05-06T05:39:41.581Z,72.45
2023-05-06T05:42:08.067Z,73.33
2023-05-06T05:44:34.643Z,73.96
2023-05-06T05:47:02.287Z,73.97
2023-05-06T05:49:29.743Z,74.66
2023-05-06T05:51:56.298Z,74.12
2023-05-06T05:54:22.788Z,75.36
2023-05-06T05:56:50.466Z,76.42
2023-05-06T05:59:17.069Z,77.26
2023-05-06T06:01:43.654Z,76.35
2023-05-06T06:04:10.519Z,76.97
2023-05-06T06:06:37.232Z,77.81
2023-05-06T06:09:04.283Z,77.60
2023-05-06T06:11:30.785Z,78.60
2023-05-06T06:13:57.237Z,78.44
2023-05-06T06:16:23.875Z,77.55
2023-05-06T06:18:50.526Z,78.29
2023-05-06T06:21:17.002Z,80.66
2023-05-06T06:23:43.444Z,80.86
2023-05-06T06:26:12.226Z,79.52
2023-05-06T06:28:39.367Z,80.01
2023-05-06T06:31:05.932Z,79.79
2023-05-06T06:33:32.452Z,80.12
2023-05-06T06:35:59.075Z,79.97
2023-05-06T06:38:26.000Z,80.31
2023-05-06T06:40:52.727Z,79.82
2023-05-06T06:43:20.001Z,80.74
2023-05-06T06:45:49.833Z,79.56
2023-05-06T06:48:16.833Z,80.61
2023-05-06T06:50:43.406Z,80.64
2023-05-06T06:53:10.902Z,82.90
2023-05-06T06:55:37.545Z,83.78
2023-05-06T06:58:04.079Z,81.94
2023-05-06T07:00:30.681Z,82.36
2023-05-06T07:02:57.199Z,82.98
2023-05-06T07:05:23.620Z,82.11
2023-05-06T07:07:50.059Z,83.46
2023-05-06T07:10:16.595Z,82.92
2023-05-06T07:12:43.318Z,83.08
2023-05-06T07:15:10.707Z,83.19
2023-05-06T07:17:37.649Z,84.38
2023-05-06T07:20:04.810Z,84.61
2023-05-06T07:22:31.499Z,85.92
2023-05-06T07:24:58.014Z,83.38
2023-05-06T07:27:24.516Z,84.29
2023-05-06T07:29:51.227Z,85.25
2023-05-06T07:32:17.808Z,84.38
2023-05-06T07:34:44.386Z,85.11
2023-05-06T07:37:10.980Z,85.56
2023-05-06T07:39:37.464Z,85.47
2023-05-06T07:42:04.048Z,87.76
2023-05-06T07:44:30.562Z,86.85
2023-05-06T07:46:57.269Z,86.32
2023-05-06T07:49:24.135Z,86.45
2023-05-06T07:51:51.131Z,86.11
2023-05-06T07:54:17.710Z,86.53
2023-05-06T07:56:44.209Z,86.23
2023-05-06T07:59:11.825Z,86.58
2023-05-06T08:01:38.353Z,87.15
2023-05-06T08:04:05.120Z,87.45
2023-05-06T08:06:32.292Z,86.92
2023-05-06T08:08:59.042Z,88.58
2023-05-06T08:11:25.705Z,87.97
2023-05-06T08:13:52.305Z,87.51
2023-05-06T08:16:19.172Z,88.83
2023-05-06T08:18:45.748Z,89.52
2023-05-06T08:21:12.258Z,89.00
2023-05-06T08:23:38.742Z,88.10
2023-05-06T08:26:05.306Z,89.83
2023-05-06T08:28:32.107Z,88.36
2023-05-06T08:30:58.582Z,89.05
2023-05-06T08:33:25.155Z,88.51
2023-05-06T08:35:51.689Z,88.88
2023-05-06T08:38:18.237Z,89.10
2023-05-06T08:40:45.400Z,89.80
2023-05-06T08:43:14.575Z,89.95
2023-05-06T08:45:42.026Z,89.23
2023-05-06T08:48:09.230Z,88.80
2023-05-06T08:50:42.041Z,90.17
2023-05-06T08:53:14.991Z,89.29
2023-05-06T08:55:42.911Z,88.57
2023-05-06T08:58:13.350Z,89.88
2023-05-06T09:00:40.330Z,89.63
2023-05-06T09:03:06.965Z,91.05
2023-05-06T09:05:33.658Z,90.45
2023-05-06T09:08:00.402Z,90.22
2023-05-06T09:10:32.177Z,90.32
2023-05-06T09:12:59.024Z,90.47
2023-05-06T09:15:27.848Z,89.96
2023-05-06T09:17:55.423Z,89.25
2023-05-06T09:20:22.266Z,88.68
2023-05-06T09:22:49.161Z,89.28
2023-05-06T09:25:15.957Z,89.02
2023-05-06T09:27:42.493Z,88.55
2023-05-06T09:30:12.255Z,89.36
2023-05-06T09:32:40.526Z,88.66
2023-05-06T09:35:08.707Z,87.83
2023-05-06T09:37:35.384Z,88.35
2023-05-06T09:40:01.965Z,87.92
2023-05-06T09:42:29.962Z,87.66
2023-05-06T09:45:01.107Z,87.54
2023-05-06T09:47:34.192Z,88.23
2023-05-06T09:50:04.493Z,88.57
2023-05-06T09:52:31.659Z,87.92
2023-05-06T09:54:58.514Z,89.49
2023-05-06T09:57:25.871Z,89.62
2023-05-06T09:59:54.121Z,89.01
2023-05-06T10:02:23.452Z,89.38
2023-05-06T10:04:51.185Z,89.42
2023-05-06T10:07:22.752Z,89.28
2023-05-06T10:09:53.371Z,89.86
2023-05-06T10:12:20.306Z,89.85
2023-05-06T10:14:48.436Z,89.49
2023-05-06T10:17:18.461Z,88.24
2023-05-06T10:19:46.587Z,88.66
2023-05-06T10:22:19.416Z,89.31
2023-05-06T10:25:23.754Z,89.38
2023-05-06T10:27:50.850Z,90.72
2023-05-06T10:30:18.974Z,90.41
2023-05-06T10:32:46.113Z,91.52
2023-05-06T10:35:22.613Z,91.11
2023-05-06T10:37:51.735Z,91.97
2023-05-06T10:40:20.004Z,90.81
2023-05-06T10:42:46.573Z,91.34
2023-05-06T10:45:15.329Z,90.70
2023-05-06T10:47:57.588Z,91.92
2023-05-06T10:50:28.992Z,91.10
2023-05-06T10:52:59.134Z,92.64
2023-05-06T10:55:29.418Z,92.12
2023-05-06T10:57:57.382Z,92.15
2023-05-06T11:00:24.501Z,94.01
2023-05-06T11:02:56.889Z,93.89
2023-05-06T11:05:23.964Z,93.41
2023-05-06T11:07:52.006Z,94.84
2023-05-06T11:10:32.929Z,94.71
2023-05-06T11:13:18.798Z,94.10
2023-05-06T11:15:46.406Z,95.06
2023-05-06T11:18:28.230Z,93.69
2023-05-06T11:21:03.801Z,95.08
2023-05-06T11:23:42.475Z,95.46
2023-05-06T11:26:10.201Z,95.85
2023-05-06T11:28:36.781Z,94.76
2023-05-06T11:31:03.424Z,94.94
2023-05-06T11:33:36.845Z,94.83
2023-05-06T11:36:04.513Z,95.09
2023-05-06T11:38:45.249Z,93.93
2023-05-06T11:41:12.933Z,94.40
2023-05-06T11:43:39.682Z,94.30
2023-05-06T11:46:06.470Z,94.84
2023-05-06T11:48:33.038Z,94.55
2023-05-06T11:51:04.050Z,96.16
2023-05-06T11:53:30.563Z,95.04
2023-05-06T11:55:57.148Z,95.49
2023-05-06T11:58:28.763Z,94.34
2023-05-06T12:00:57.806Z,94.52
2023-05-06T12:03:26.205Z,95.96
2023-05-06T12:05:53.249Z,95.69
2023-05-06T12:08:29.775Z,95.78
2023-05-06T12:10:59.364Z,97.08
2023-05-06T12:13:27.056Z,96.88
2023-05-06T12:15:55.822Z,96.42
2023-05-06T12:18:24.077Z,96.20
2023-05-06T12:20:54.201Z,97.79
2023-05-06T12:23:22.087Z,96.67
2023-05-06T12:26:04.344Z,97.03
2023-05-06T12:28:33.015Z,98.37
2023-05-06T12:31:01.010Z,97.97
2023-05-06T12:33:27.596Z,98.36
2023-05-06T12:36:00.525Z,98.92
2023-05-06T12:38:27.227Z,99.19
2023-05-06T12:40:55.512Z,98.73
2023-05-06T12:43:32.452Z,98.08
2023-05-06T12:46:04.801Z,98.03
2023-05-06T12:48:31.434Z,98.68
2023-05-06T12:50:58.023Z,99.78
2023-05-06T12:53:33.192Z,98.70
2023-05-06T12:55:59.694Z,98.79
2023-05-06T12:58:26.381Z,99.14
2023-05-06T13:00:52.977Z,98.43
2023-05-06T13:03:19.611Z,98.72
2023-05-06T13:05:48.210Z,99.30
2023-05-06T13:08:14.777Z,99.11
2023-05-06T13:10:41.332Z,99.22
2023-05-06T13:13:07.975Z,98.65
2023-05-06T13:15:35.031Z,99.00
2023-05-06T13:18:01.678Z,99.32
2023-05-06T13:20:28.314Z,98.76
2023-05-06T13:22:55.376Z,99.35
2023-05-06T13:25:22.184Z,99.13
2023-05-06T13:27:48.927Z,99.41
2023-05-06T13:30:15.732Z,100.00
2023-05-06T13:32:42.329Z,99.34
2023-05-06T13:35:09.408Z,100.00
2023-05-06T13:37:36.107Z,99.27
2023-05-06T13:40:03.290Z,99.12
2023-05-06T13:42:29.794Z,99.57
2023-05-06T13:44:56.405Z,99.98
2023-05-06T13:47:23.149Z,100.00
2023-05-06T13:49:49.620Z,99.38
2023-05-06T13:52:16.082Z,99.18
2023-05-06T13:54:42.684Z,99.97
2023-05-06T13:57:09.179Z,100.00
2023-05-06T13:59:35.629Z,100.00
2023-05-06T14:02:07.020Z,100.00
2023-05-06T14:04:35.424Z,100.00
2023-05-06T14:07:01.942Z,100.00
2023-05-06T14:09:28.450Z,100.00
2023-05-06T14:11:54.881Z,100.00
2023-05-06T14:14:21.399Z,100.00
2023-05-06T14:16:47.984Z,100.00
2023-05-06T14:19:14.488Z,100.00
2023-05-06T14:21:40.975Z,100.00
2023-05-06T14:24:08.148Z,100.00
2023-05-06T14:26:34.822Z,100.00
2023-05-06T14:29:01.388Z,99.91
2023-05-06T14:31:29.525Z,99.85
2023-05-06T14:33:56.644Z,100.00
2023-05-06T14:36:23.148Z,99.40
2023-05-06T14:38:49.613Z,99.79
2023-05-06T14:41:16.280Z,99.38
2023-05-06T14:43:42.986Z,99.84
2023-05-06T14:46:11.246Z,98.77
2023-05-06T14:48:37.850Z,98.42
2023-05-06T14:51:05.012Z,98.21
2023-05-06T14:53:31.859Z,98.28
2023-05-06T14:55:58.418Z,97.25
2023-05-06T14:58:24.948Z,98.63
2023-05-06T15:00:51.727Z,98.09
2023-05-06T15:03:18.396Z,98.37
2023-05-06T15:05:44.918Z,97.78
2023-05-06T15:08:11.518Z,98.64
2023-05-06T15:10:38.210Z,98.40
2023-05-06T15:13:04.927Z,98.79
2023-05-06T15:15:31.529Z,97.53
2023-05-06T15:17:58.215Z,97.04
2023-05-06T15:20:24.857Z,98.45
2023-05-06T15:22:51.366Z,98.21
2023-05-06T15:25:30.865Z,98.15
2023-05-06T15:28:01.314Z,98.00
2023-05-06T15:30:29.052Z,97.64
2023-05-06T15:32:55.743Z,97.45
2023-05-06T15:35:22.478Z,97.94
2023-05-06T15:37:49.000Z,97.99
2023-05-06T15:40:15.569Z,98.68
2023-05-06T15:42:42.172Z,98.64
2023-05-06T15:45:09.221Z,98.89
2023-05-06T15:47:37.394Z,99.07
2023-05-06T15:50:16.450Z,98.34
2023-05-06T15:52:50.785Z,98.44
2023-05-06T15:55:17.327Z,98.32
2023-05-06T15:57:46.088Z,99.11
2023-05-06T16:00:14.981Z,98.90
2023-05-06T16:02:41.637Z,99.18
2023-05-06T16:05:09.736Z,99.11
2023-05-06T16:07:36.398Z,98.68
2023-05-06T16:10:03.890Z,99.42
2023-05-06T16:12:32.708Z,98.81
2023-05-06T16:15:00.147Z,99.37
2023-05-06T16:17:26.708Z,99.04
2023-05-06T16:19:53.258Z,99.86
2023-05-06T16:22:19.914Z,99.93
2023-05-06T16:24:46.658Z,98.95
2023-05-06T16:27:14.021Z,99.35
2023-05-06T16:29:40.923Z,98.33
2023-05-06T16:32:07.452Z,98.45
2023-05-06T16:34:34.049Z,98.80
2023-05-06T16:37:00.660Z,98.58
2023-05-06T16:39:28.372Z,98.60
2023-05-06T16:41:55.340Z,98.56
2023-05-06T16:44:21.843Z,98.58
2023-05-06T16:46:48.393Z,98.97
2023-05-06T16:49:15.119Z,98.25
2023-05-06T16:51:41.705Z,98.44
2023-05-06T16:54:08.196Z,98.82
2023-05-06T16:56:48.114Z,98.88
2023-05-06T16:59:15.087Z,98.94
2023-05-06T17:01:41.629Z,98.71
2023-05-06T17:04:08.142Z,98.07
2023-05-06T17:06:34.728Z,97.93
2023-05-06T17:09:01.386Z,98.32
2023-05-06T17:11:28.027Z,99.09
2023-05-06T17:13:54.623Z,99.15
2023-05-06T17:16:21.713Z,98.58
2023-05-06T17:18:48.565Z,99.13
2023-05-06T17:21:16.230Z,99.19
2023-05-06T17:23:42.843Z,99.35
2023-05-06T17:26:10.536Z,98.64
2023-05-06T17:28:37.824Z,99.41
2023-05-06T17:31:04.546Z,99.73
2023-05-06T17:33:31.360Z,98.25
2023-05-06T17:35:57.886Z,98.73
2023-05-06T17:38:24.733Z,99.07
2023-05-06T17:40:51.320Z,99.25
2023-05-06T17:43:17.874Z,98.75
2023-05-06T17:45:44.576Z,99.10
2023-05-06T17:48:11.235Z,97.98
2023-05-06T17:50:37.812Z,98.11
2023-05-06T17:53:04.272Z,99.20
2023-05-06T17:55:30.889Z,99.26
2023-05-06T17:57:57.397Z,98.51
2023-05-06T18:00:24.006Z,98.90
2023-05-06T18:02:50.798Z,98.49
2023-05-06T18:05:17.654Z,98.34
2023-05-06T18:07:44.168Z,98.20
2023-05-06T18:10:11.137Z,98.22
2023-05-06T18:12:37.853Z,99.20
2023-05-06T18:15:05.647Z,98.57
2023-05-06T18:17:32.172Z,98.80
2023-05-06T18:19:58.715Z,99.59
2023-05-06T18:22:25.562Z,99.35
2023-05-06T18:24:55.243Z,99.44
2023-05-06T18:27:22.557Z,98.89
2023-05-06T18:29:49.278Z,99.18
2023-05-06T18:32:15.889Z,99.46
2023-05-06T18:34:42.451Z,99.12
2023-05-06T18:37:09.027Z,99.11
2023-05-06T18:39:40.563Z,100.00
2023-05-06T18:42:07.142Z,100.00
2023-05-06T18:44:33.676Z,100.00
2023-05-06T18:47:00.224Z,100.00
2023-05-06T18:49:28.145Z,100.00
2023-05-06T18:51:54.873Z,100.00
2023-05-06T18:54:21.461Z,99.79
2023-05-06T18:56:48.374Z,100.00
2023-05-06T18:59:14.886Z,100.00
2023-05-06T19:01:41.670Z,100.00
2023-05-06T19:04:08.346Z,100.00
2023-05-06T19:06:36.263Z,99.65
2023-05-06T19:09:02.898Z,100.00
2023-05-06T19:11:29.364Z,99.84
2023-05-06T19:13:55.943Z,100.00
2023-05-06T19:16:22.611Z,100.00
2023-05-06T19:18:49.155Z,100.00
2023-05-06T19:21:15.868Z,100.00
2023-05-06T19:23:42.429Z,100.00
2023-05-06T19:26:11.226Z,100.00
2023-05-06T19:28:39.434Z,100.00
2023-05-06T19:31:08.315Z,100.00
2023-05-06T19:33:36.177Z,100.00
2023-05-06T19:36:03.259Z,100.00
2023-05-06T19:38:30.104Z,100.00
2023-05-06T19:40:56.585Z,100.00
2023-05-06T19:43:23.442Z,100.00
2023-05-06T19:45:50.040Z,100.00
2023-05-06T19:48:17.886Z,100.00
2023-05-06T19:50:44.486Z,100.00
2023-05-06T19:53:11.489Z,100.00
2023-05-06T19:55:37.997Z,100.00
2023-05-06T19:58:04.520Z,100.00
2023-05-06T20:00:31.353Z,100.00
2023-05-06T20:02:59.443Z,100.00
2023-05-06T20:05:32.421Z,100.00
2023-05-06T20:08:02.258Z,100.00
2023-05-06T20:10:29.517Z,100.00
2023-05-06T20:12:57.854Z,100.00
2023-05-06T20:15:24.747Z,100.00
2023-05-06T20:17:51.402Z,100.00
2023-05-06T20:20:19.090Z,100.00
2023-05-06T20:22:46.302Z,100.00
2023-05-06T20:25:16.294Z,100.00
2023-05-06T20:27:46.461Z,100.00
2023-05-06T20:30:13.332Z,100.00
2023-05-06T20:32:40.676Z,100.00
2023-05-06T20:35:07.937Z,100.00
2023-05-06T20:37:35.346Z,100.00
2023-05-06T20:40:04.605Z,100.00
2023-05-06T20:42:31.801Z,100.00
2023-05-06T20:44:58.833Z,100.00
2023-05-06T20:47:25.539Z,100.00
2023-05-06T20:49:52.127Z,100.00
2023-05-06T20:52:18.966Z,100.00
2023-05-06T20:54:45.753Z,100.00
2023-05-06T20:57:13.747Z,100.00
2023-05-06T20:59:40.253Z,100.00
2023-05-06T21:02:06.957Z,100.00
2023-05-06T21:04:33.568Z,100.00
2023-05-06T21:07:00.043Z,100.00
2023-05-06T21:09:27.812Z,100.00
2023-05-06T21:11:55.660Z,100.00
2023-05-06T21:14:24.780Z,100.00
2023-05-06T21:16:52.205Z,100.00
2023-05-06T21:19:19.605Z,100.00
2023-05-06T21:21:46.247Z,100.00
2023-05-06T21:24:13.030Z,100.00
2023-05-06T21:26:40.103Z,100.00
2023-05-06T21:29:06.750Z,100.00
2023-05-06T21:31:33.571Z,100.00
2023-05-06T21:34:00.547Z,100.00
2023-05-06T21:36:27.259Z,100.00
2023-05-06T21:39:05.611Z,100.00
2023-05-06T21:41:32.262Z,100.00
2023-05-06T21:43:59.023Z,100.00
2023-05-06T21:46:25.819Z,100.00
2023-05-06T21:48:52.366Z,100.00
2023-05-06T21:51:18.844Z,100.00
2023-05-06T21:53:51.834Z,100.00
2023-05-06T21:56:18.529Z,100.00
2023-05-06T21:58:45.334Z,100.00
2023-05-06T22:01:12.102Z,100.00
2023-05-06T22:03:38.978Z,99.93
2023-05-06T22:06:05.997Z,100.00
2023-05-06T22:08:32.491Z,100.00
2023-05-06T22:10:59.084Z,100.00
2023-05-06T22:13:26.824Z,100.00
2023-05-06T22:15:54.212Z,100.00
2023-05-06T22:18:20.923Z,100.00
2023-05-06T22:20:49.272Z,99.73
2023-05-06T22:23:15.852Z,99.58
2023-05-06T22:25:42.354Z,99.84
2023-05-06T22:28:08.949Z,99.30
2023-05-06T22:30:35.558Z,99.63
2023-05-06T22:33:02.164Z,100.00
2023-05-06T22:35:28.706Z,100.00
2023-05-06T22:37:55.255Z,99.73
2023-05-06T22:40:21.797Z,99.42
2023-05-06T22:42:48.434Z,99.50
2023-05-06T22:45:15.129Z,99.29
2023-05-06T22:47:41.603Z,100.00
2023-05-06T22:50:08.960Z,99.22
2023-05-06T22:52:35.493Z,99.84
2023-05-06T22:55:02.065Z,99.80
2023-05-06T22:57:28.730Z,99.48
2023-05-06T22:59:55.462Z,99.13
2023-05-06T23:02:22.042Z,99.83
2023-05-06T23:04:48.622Z,98.97
2023-05-06T23:07:15.180Z,98.21
2023-05-06T23:09:41.805Z,99.44
2023-05-06T23:12:08.339Z,98.84
2023-05-06T23:14:34.920Z,98.85
2023-05-06T23:17:01.493Z,98.07
2023-05-06T23:19:28.048Z,98.32
2023-05-06T23:21:54.511Z,98.73
2023-05-06T23:24:21.321Z,98.62
2023-05-06T23:26:47.786Z,98.13
2023-05-06T23:29:14.259Z,98.21
2023-05-06T23:31:40.963Z,98.75
2023-05-06T23:34:07.507Z,98.11
2023-05-06T23:36:34.205Z,98.55
2023-05-06T23:39:00.710Z,98.33
2023-05-06T23:41:27.654Z,98.40
2023-05-06T23:43:54.143Z,98.48
2023-05-06T23:46:20.677Z,97.92
2023-05-06T23:48:47.233Z,98.05
2023-05-06T23:51:13.793Z,98.02
2023-05-06T23:53:40.843Z,98.21
2023-05-06T23:56:07.523Z,97.70
2023-05-06T23:58:34.005Z,97.50
